Terminal Aerodrome Forecast
Issued by NWS

Current Version | Previous Version | Text Only | Print | Product List | Glossary On
Versions: 1 2 3 4 5 6 7 8 9 10 11 12 13 14
000
FTUS45 KRIW 282300
TAFJAC
TAF
KJAC 282330Z 0100/0124 36006KT P6SM VCSH SCT020 BKN040
     FM010600 36006KT P6SM VCFG SCT010 BKN030
     FM011800 VRB06KT P6SM VCSH SCT020 BKN050
      AMD LTD TO CLD VIS AND WIND=

USA.gov is the U.S. government's official web portal to all federal, state and local government web resources and services.